CheckWX is a tool to help pilots better visualize weather data.  It is not intended as a substitute for an official pre-flight weather briefing.

09:47:32 UTC

KCVB METAR
Castroville Municipal Airport
Castroville, Texas, USA
Current

33 mins ago

KCVB 250915Z AUTO 09003KT 2SM BR OVC002 25/25 A2988 RMK AO2 T02520250
Observed
Aug-25 @ 09:15 UTC
Wind
  • 090° at 3 KTS
Visibility
2 SM
Flight Rules
LIFR
Conditions
Mist
Cloud Levels
  • Overcast at 200' AGL
Temperature
25°C / 77°F
Dewpoint
25°C / 77°F
Humidity
100%
Altimeter
29.88" Hg
Pressure
1011.82 hPa
Previous

53 mins ago

KCVB 250855Z AUTO 09003KT 3SM BR SCT002 26/25 A2988 RMK AO2 T02550252
Observed
Aug-25 @ 08:55 UTC
Wind
  • 090° at 3 KTS
Visibility
3 SM
Flight Rules
MVFR
Conditions
Mist
Cloud Levels
  • Scattered at 200' AGL
Temperature
26°C / 79°F
Dewpoint
25°C / 77°F
Humidity
94%
Altimeter
29.88" Hg
Pressure
1011.82 hPa
Previous

1 hour ago

KCVB 250835Z AUTO 10003KT 4SM BR SCT020 26/25 A2988 RMK AO2 T02550252
Observed
Aug-25 @ 08:35 UTC
Wind
  • 100° at 3 KTS
Visibility
4 SM
Flight Rules
MVFR
Conditions
Mist
Cloud Levels
  • Scattered at 2,000' AGL
Temperature
26°C / 79°F
Dewpoint
25°C / 77°F
Humidity
94%
Altimeter
29.88" Hg
Pressure
1011.82 hPa